createdAt,value
2023-05-02T00:00:49.952Z,2230.00
2023-05-02T00:01:50.024Z,2287.00
2023-05-02T00:02:50.198Z,2268.00
2023-05-02T00:03:50.112Z,2245.00
2023-05-02T00:04:50.015Z,2240.00
2023-05-02T00:05:50.010Z,2212.00
2023-05-02T00:06:50.143Z,2221.00
2023-05-02T00:07:50.060Z,2251.00
2023-05-02T00:08:50.064Z,2223.00
2023-05-02T00:09:50.127Z,2232.00
2023-05-02T00:10:50.118Z,2236.00
2023-05-02T00:11:50.139Z,2210.00
2023-05-02T00:12:50.174Z,2156.00
2023-05-02T00:13:50.222Z,2159.00
2023-05-02T00:14:50.220Z,2176.00
2023-05-02T00:15:50.267Z,2189.00
2023-05-02T00:16:50.247Z,2150.00
2023-05-02T00:17:50.282Z,2127.00
2023-05-02T00:18:50.275Z,2148.00
2023-05-02T00:19:50.270Z,2139.00
2023-05-02T00:20:50.266Z,2179.00
2023-05-02T00:21:50.331Z,2164.00
2023-05-02T00:22:50.300Z,2121.00
2023-05-02T00:23:50.340Z,2102.00
2023-05-02T00:24:50.329Z,2101.00
2023-05-02T00:25:50.371Z,2101.00
2023-05-02T00:26:50.375Z,2137.00
2023-05-02T00:27:50.408Z,2161.00
2023-05-02T00:28:50.430Z,2178.00
2023-05-02T00:29:50.448Z,2168.00
2023-05-02T00:30:50.474Z,2207.00
2023-05-02T00:31:50.467Z,2188.00
2023-05-02T00:32:50.601Z,2188.00
2023-05-02T00:33:50.509Z,2195.00
2023-05-02T00:34:50.529Z,2214.00
2023-05-02T00:35:50.533Z,2174.00
2023-05-02T00:36:50.575Z,2177.00
2023-05-02T00:37:50.632Z,2238.00
2023-05-02T00:38:50.643Z,2302.00
2023-05-02T00:39:50.657Z,2325.00
2023-05-02T00:40:50.666Z,2312.00
2023-05-02T00:41:50.670Z,2367.00
2023-05-02T00:42:50.696Z,2381.00
2023-05-02T00:43:50.714Z,2407.00
2023-05-02T00:44:50.724Z,2368.00
2023-05-02T00:45:50.728Z,2388.00
2023-05-02T00:46:50.755Z,2400.00
2023-05-02T00:47:50.784Z,2378.00
2023-05-02T00:48:50.819Z,2390.00
2023-05-02T00:49:50.761Z,2383.00
2023-05-02T00:50:50.732Z,2348.00
2023-05-02T00:51:50.765Z,2364.00
2023-05-02T00:52:50.775Z,2353.00
2023-05-02T00:53:50.797Z,2350.00
2023-05-02T00:54:50.841Z,2233.00
2023-05-02T00:55:50.835Z,2187.00
2023-05-02T00:56:50.841Z,2133.00
2023-05-02T00:57:50.852Z,2127.00
2023-05-02T00:58:50.857Z,2161.00
2023-05-02T00:59:50.851Z,2168.00
2023-05-02T01:00:50.866Z,2146.00
2023-05-02T01:01:50.970Z,2113.00
2023-05-02T01:02:51.042Z,2157.00
2023-05-02T01:03:51.133Z,2190.00
2023-05-02T01:04:50.950Z,2211.00
2023-05-02T01:05:50.921Z,2255.00
2023-05-02T01:06:51.022Z,2258.00
2023-05-02T01:07:50.983Z,2239.00
2023-05-02T01:08:51.008Z,2264.00
2023-05-02T01:09:51.028Z,2288.00
2023-05-02T01:10:51.013Z,2284.00
2023-05-02T01:11:51.040Z,2338.00
2023-05-02T01:12:51.069Z,2340.00
2023-05-02T01:13:51.091Z,2379.00
2023-05-02T01:14:51.138Z,2388.00
2023-05-02T01:15:51.234Z,2389.00
2023-05-02T01:16:51.159Z,2395.00
2023-05-02T01:17:51.253Z,2413.00
2023-05-02T01:18:51.201Z,2411.00
2023-05-02T01:19:51.260Z,2428.00
2023-05-02T01:20:51.243Z,2397.00
2023-05-02T01:21:51.261Z,2401.00
2023-05-02T01:22:51.277Z,2381.00
2023-05-02T01:23:51.282Z,2350.00
2023-05-02T01:24:51.325Z,2302.00
2023-05-02T01:25:51.352Z,2312.00
2023-05-02T01:26:51.363Z,2266.00
2023-05-02T01:27:51.427Z,2264.00
2023-05-02T01:28:51.444Z,2245.00
2023-05-02T01:29:51.503Z,2217.00
2023-05-02T01:30:51.490Z,2179.00
2023-05-02T01:31:52.481Z,2198.00
2023-05-02T01:32:51.641Z,2191.00
2023-05-02T01:33:51.575Z,2209.00
2023-05-02T01:34:51.647Z,2169.00
2023-05-02T01:35:51.671Z,2158.00
2023-05-02T01:36:51.684Z,2180.00
2023-05-02T01:37:51.707Z,2192.00
2023-05-02T01:38:51.734Z,2187.00
2023-05-02T01:39:51.770Z,2160.00
2023-05-02T01:40:51.799Z,2142.00
2023-05-02T01:41:51.803Z,2125.00
2023-05-02T01:42:51.811Z,2156.00
2023-05-02T01:43:51.858Z,2183.00
2023-05-02T01:44:51.900Z,2189.00
2023-05-02T01:45:51.931Z,2144.00
2023-05-02T01:46:52.032Z,2101.00
2023-05-02T01:47:51.958Z,2088.00
2023-05-02T01:48:51.986Z,2092.00
2023-05-02T01:49:52.021Z,2098.00
2023-05-02T01:50:52.035Z,2071.00
2023-05-02T01:51:52.086Z,2102.00
2023-05-02T01:52:52.123Z,2084.00
2023-05-02T01:53:52.129Z,2077.00
2023-05-02T01:54:52.167Z,2099.00
2023-05-02T01:55:52.186Z,2109.00
2023-05-02T01:56:52.213Z,2085.00
2023-05-02T01:57:52.216Z,2074.00
2023-05-02T01:58:52.261Z,2031.00
2023-05-02T01:59:52.303Z,2024.00
2023-05-02T02:00:52.426Z,2022.00
2023-05-02T02:01:52.368Z,2038.00
2023-05-02T02:02:52.427Z,2015.00
2023-05-02T02:03:52.499Z,2041.00
2023-05-02T02:04:52.504Z,2086.00
2023-05-02T02:05:52.523Z,2069.00
2023-05-02T02:06:52.664Z,2060.00
2023-05-02T02:07:52.558Z,2009.00
2023-05-02T02:08:52.589Z,2006.00
2023-05-02T02:09:52.612Z,2042.00
2023-05-02T02:10:52.645Z,2025.00
2023-05-02T02:11:52.682Z,1968.00
2023-05-02T02:12:52.696Z,1963.00
2023-05-02T02:13:52.756Z,1982.00
2023-05-02T02:14:52.779Z,1970.00
2023-05-02T02:15:52.813Z,1911.00
2023-05-02T02:16:52.880Z,1907.00
2023-05-02T02:17:52.929Z,1917.00
2023-05-02T02:18:52.925Z,1923.00
2023-05-02T02:19:52.974Z,1934.00
2023-05-02T02:20:52.989Z,1941.00
2023-05-02T02:21:53.073Z,1916.00
2023-05-02T02:22:53.075Z,1942.00
2023-05-02T02:23:53.123Z,1959.00
2023-05-02T02:24:54.400Z,1874.00
2023-05-02T02:25:53.199Z,1923.00
2023-05-02T02:26:53.239Z,1951.00
2023-05-02T02:27:53.274Z,1988.00
2023-05-02T02:28:53.315Z,1958.00
2023-05-02T02:29:53.394Z,2016.00
2023-05-02T02:30:53.429Z,2001.00
2023-05-02T02:31:53.418Z,2024.00
2023-05-02T02:32:53.498Z,2001.00
2023-05-02T02:33:53.441Z,2047.00
2023-05-02T02:34:53.509Z,2036.00
2023-05-02T02:35:53.536Z,2078.00
2023-05-02T02:36:53.606Z,2078.00
2023-05-02T02:37:53.648Z,2093.00
2023-05-02T02:38:53.659Z,2106.00
2023-05-02T02:39:53.702Z,2146.00
2023-05-02T02:40:53.783Z,2201.00
2023-05-02T02:41:53.778Z,2228.00
2023-05-02T02:42:53.832Z,2199.00
2023-05-02T02:43:53.878Z,2168.00
2023-05-02T02:44:53.902Z,2185.00
2023-05-02T02:45:53.996Z,2238.00
2023-05-02T02:46:53.982Z,2224.00
2023-05-02T02:47:54.116Z,2227.00
2023-05-02T02:48:54.090Z,2194.00
2023-05-02T02:49:54.104Z,2175.00
2023-05-02T02:50:54.144Z,2204.00
2023-05-02T02:51:54.212Z,2259.00
2023-05-02T02:52:54.234Z,2261.00
2023-05-02T02:53:54.270Z,2258.00
2023-05-02T02:54:54.331Z,2276.00
2023-05-02T02:55:54.385Z,2308.00
2023-05-02T02:56:54.409Z,2299.00
2023-05-02T02:57:54.469Z,2303.00
2023-05-02T02:58:54.485Z,2306.00
2023-05-02T02:59:54.564Z,2327.00
2023-05-02T03:00:54.605Z,2313.00
2023-05-02T03:01:54.658Z,2324.00
2023-05-02T03:02:54.704Z,2398.00
2023-05-02T03:03:54.856Z,2395.00
2023-05-02T03:04:54.792Z,2408.00
2023-05-02T03:05:54.818Z,2429.00
2023-05-02T03:06:54.942Z,2406.00
2023-05-02T03:07:54.908Z,2418.00
2023-05-02T03:08:54.941Z,2427.00
2023-05-02T03:09:55.028Z,2470.00
2023-05-02T03:10:55.056Z,2481.00
2023-05-02T03:11:55.108Z,2498.00
2023-05-02T03:12:55.161Z,2504.00
2023-05-02T03:13:55.170Z,2514.00
2023-05-02T03:14:55.230Z,2513.00
2023-05-02T03:15:55.378Z,2539.00
2023-05-02T03:16:55.299Z,2510.00
2023-05-02T03:17:55.394Z,2486.00
2023-05-02T03:18:55.370Z,2510.00
2023-05-02T03:19:55.459Z,2484.00
2023-05-02T03:20:55.437Z,2525.00
2023-05-02T03:21:55.515Z,2537.00
2023-05-02T03:22:55.529Z,2512.00
2023-05-02T03:23:55.592Z,2493.00
2023-05-02T03:24:55.607Z,2467.00
2023-05-02T03:25:55.646Z,2444.00
2023-05-02T03:26:55.708Z,2420.00
2023-05-02T03:27:55.702Z,2379.00
2023-05-02T03:28:55.769Z,2321.00
2023-05-02T03:29:55.851Z,2313.00
2023-05-02T03:30:55.808Z,2298.00
2023-05-02T03:31:55.944Z,2288.00
2023-05-02T03:32:55.938Z,2287.00
2023-05-02T03:33:55.896Z,2291.00
2023-05-02T03:34:55.957Z,2344.00
2023-05-02T03:35:55.982Z,2407.00
2023-05-02T03:36:56.005Z,2456.00
2023-05-02T03:37:56.020Z,2457.00
2023-05-02T03:38:56.059Z,2444.00
2023-05-02T03:39:56.065Z,2480.00
2023-05-02T03:40:56.110Z,2468.00
2023-05-02T03:41:56.139Z,2523.00
2023-05-02T03:42:56.179Z,2526.00
2023-05-02T03:43:56.217Z,2521.00
2023-05-02T03:44:56.253Z,2543.00
2023-05-02T03:45:56.280Z,2536.00
2023-05-02T03:46:56.371Z,2540.00
2023-05-02T03:47:56.395Z,2475.00
2023-05-02T03:48:56.355Z,2461.00
2023-05-02T03:49:56.397Z,2418.00
2023-05-02T03:50:56.440Z,2449.00
2023-05-02T03:51:56.458Z,2405.00
2023-05-02T03:52:56.630Z,2400.00
2023-05-02T03:53:56.551Z,2382.00
2023-05-02T03:54:56.616Z,2356.00
2023-05-02T03:55:56.663Z,2341.00
2023-05-02T03:56:56.697Z,2284.00
2023-05-02T03:57:56.757Z,2260.00
2023-05-02T03:58:56.838Z,2325.00
2023-05-02T03:59:56.960Z,2330.00
2023-05-02T04:00:56.927Z,2322.00
2023-05-02T04:01:56.998Z,2296.00
2023-05-02T04:02:57.094Z,2283.00
2023-05-02T04:03:57.204Z,2298.00
2023-05-02T04:04:57.112Z,2342.00
2023-05-02T04:05:57.171Z,2299.00
2023-05-02T04:06:57.198Z,2302.00
2023-05-02T04:07:57.251Z,2282.00
2023-05-02T04:08:57.270Z,2225.00
2023-05-02T04:09:57.445Z,2272.00
2023-05-02T04:10:57.385Z,2304.00
2023-05-02T04:11:57.449Z,2332.00
2023-05-02T04:12:57.468Z,2274.00
2023-05-02T04:13:57.487Z,2267.00
2023-05-02T04:14:57.564Z,2282.00
2023-05-02T04:15:57.563Z,2299.00
2023-05-02T04:16:57.657Z,2269.00
2023-05-02T04:17:57.645Z,2273.00
2023-05-02T04:18:57.725Z,2339.00
2023-05-02T04:19:57.901Z,2354.00
2023-05-02T04:20:57.772Z,2353.00
2023-05-02T04:21:57.821Z,2308.00
2023-05-02T04:22:57.825Z,2299.00
2023-05-02T04:23:57.865Z,2307.00
2023-05-02T04:24:58.051Z,2273.00
2023-05-02T04:25:57.976Z,2297.00
2023-05-02T04:26:58.002Z,2320.00
2023-05-02T04:27:58.060Z,2319.00
2023-05-02T04:28:58.072Z,2320.00
2023-05-02T04:29:58.610Z,2374.00
2023-05-02T04:30:58.184Z,2362.00
2023-05-02T04:31:58.194Z,2345.00
2023-05-02T04:32:58.270Z,2340.00
2023-05-02T04:33:58.303Z,2344.00
2023-05-02T04:34:58.309Z,2361.00
2023-05-02T04:35:58.367Z,2298.00
2023-05-02T04:36:58.371Z,2278.00
2023-05-02T04:37:58.428Z,2278.00
2023-05-02T04:38:58.448Z,2298.00
2023-05-02T04:39:58.590Z,2330.00
2023-05-02T04:40:58.518Z,2340.00
2023-05-02T04:41:58.546Z,2314.00
2023-05-02T04:42:58.589Z,2328.00
2023-05-02T04:43:58.638Z,2315.00
2023-05-02T04:44:58.652Z,2278.00
2023-05-02T04:45:58.701Z,2276.00
2023-05-02T04:46:58.692Z,2291.00
2023-05-02T04:47:58.768Z,2250.00
2023-05-02T04:48:58.805Z,2251.00
2023-05-02T04:49:58.995Z,2260.00
2023-05-02T04:50:58.873Z,2212.00
2023-05-02T04:51:58.921Z,2166.00
2023-05-02T04:52:58.921Z,2146.00
2023-05-02T04:53:58.999Z,2098.00
2023-05-02T04:54:59.094Z,2088.00
2023-05-02T04:55:59.092Z,2068.00
2023-05-02T04:56:59.134Z,2025.00
2023-05-02T04:57:59.186Z,2000.00
2023-05-02T04:58:59.254Z,1912.00
2023-05-02T04:59:59.548Z,1911.00
2023-05-02T05:00:59.346Z,1928.00
2023-05-02T05:01:59.485Z,1980.00
2023-05-02T05:03:01.723Z,1953.00
2023-05-02T05:03:59.781Z,1957.00
2023-05-02T05:04:59.759Z,2013.00
2023-05-02T05:05:59.835Z,1978.00
2023-05-02T05:06:59.853Z,1967.00
2023-05-02T05:07:59.950Z,1976.00
2023-05-02T05:08:59.929Z,1987.00
2023-05-02T05:10:00.508Z,2022.00
2023-05-02T05:11:00.024Z,2108.00
2023-05-02T05:12:00.111Z,2175.00
2023-05-02T05:13:00.200Z,2241.00
2023-05-02T05:14:00.159Z,2240.00
2023-05-02T05:15:00.218Z,2267.00
2023-05-02T05:16:00.310Z,2289.00
2023-05-02T05:17:00.281Z,2325.00
2023-05-02T05:18:00.351Z,2345.00
2023-05-02T05:19:00.350Z,2362.00
2023-05-02T05:20:00.649Z,2380.00
2023-05-02T05:21:00.418Z,2375.00
2023-05-02T05:22:00.449Z,2369.00
2023-05-02T05:23:00.446Z,2421.00
2023-05-02T05:24:00.520Z,2421.00
2023-05-02T05:25:00.525Z,2429.00
2023-05-02T05:26:00.520Z,2439.00
2023-05-02T05:27:00.556Z,2462.00
2023-05-02T05:28:00.598Z,2451.00
2023-05-02T05:29:00.600Z,2429.00
2023-05-02T05:30:00.965Z,2456.00
2023-05-02T05:31:00.618Z,2480.00
2023-05-02T05:32:00.723Z,2457.00
2023-05-02T05:33:00.762Z,2509.00
2023-05-02T05:34:00.776Z,2533.00
2023-05-02T05:35:00.711Z,2571.00
2023-05-02T05:36:00.748Z,2602.00
2023-05-02T05:37:00.738Z,2651.00
2023-05-02T05:38:01.006Z,2760.00
2023-05-02T05:39:00.787Z,2834.00
2023-05-02T05:40:01.083Z,2842.00
2023-05-02T05:41:01.528Z,2858.00
2023-05-02T05:42:00.924Z,2844.00
2023-05-02T05:43:00.971Z,2923.00
2023-05-02T05:44:00.977Z,3051.00
2023-05-02T05:45:01.011Z,3140.00
2023-05-02T05:46:00.969Z,3282.00
2023-05-02T05:47:01.056Z,3465.00
2023-05-02T05:48:01.023Z,3524.00
2023-05-02T05:49:01.037Z,3613.00
2023-05-02T05:50:01.389Z,3757.00
2023-05-02T05:51:01.133Z,3855.00
2023-05-02T05:52:01.182Z,3854.00
2023-05-02T05:53:01.227Z,3954.00
2023-05-02T05:54:01.260Z,3992.00
2023-05-02T05:55:01.868Z,4049.00
2023-05-02T05:56:01.343Z,4293.00
2023-05-02T05:57:01.424Z,4310.00
2023-05-02T05:58:01.394Z,4349.00
2023-05-02T05:59:01.420Z,4479.00
2023-05-02T06:00:01.820Z,4415.00
2023-05-02T06:01:01.666Z,4481.00
2023-05-02T06:02:01.495Z,4478.00
2023-05-02T06:03:01.672Z,4438.00
2023-05-02T06:04:01.643Z,4505.00
2023-05-02T06:05:02.113Z,4491.00
2023-05-02T06:06:01.842Z,4511.00
2023-05-02T06:07:01.721Z,4534.00
2023-05-02T06:08:01.752Z,4586.00
2023-05-02T06:09:01.817Z,4584.00
2023-05-02T06:10:02.104Z,4573.00
2023-05-02T06:11:01.814Z,4631.00
2023-05-02T06:12:01.849Z,4661.00
2023-05-02T06:13:01.827Z,4664.00
2023-05-02T06:14:01.869Z,4637.00
2023-05-02T06:15:01.918Z,4667.00
2023-05-02T06:16:01.998Z,4658.00
2023-05-02T06:17:02.017Z,4691.00
2023-05-02T06:18:02.005Z,4711.00
2023-05-02T06:19:01.964Z,4712.00
2023-05-02T06:20:02.699Z,4722.00
2023-05-02T06:21:02.005Z,4741.00
2023-05-02T06:22:02.058Z,4755.00
2023-05-02T06:23:02.078Z,4769.00
2023-05-02T06:24:02.156Z,4792.00
2023-05-02T06:25:02.185Z,4830.00
2023-05-02T06:26:02.238Z,4864.00
2023-05-02T06:27:02.307Z,4883.00
2023-05-02T06:28:02.307Z,4918.00
2023-05-02T06:29:02.385Z,5003.00
2023-05-02T06:30:02.837Z,4964.00
2023-05-02T06:31:02.575Z,4949.00
2023-05-02T06:32:02.604Z,4944.00
2023-05-02T06:33:02.626Z,4965.00
2023-05-02T06:34:02.622Z,4969.00
2023-05-02T06:35:02.698Z,5005.00
2023-05-02T06:36:02.670Z,5022.00
2023-05-02T06:37:02.685Z,5089.00
2023-05-02T06:38:02.738Z,5097.00
2023-05-02T06:39:02.765Z,5108.00
2023-05-02T06:40:03.302Z,5091.00
2023-05-02T06:41:02.867Z,5099.00
2023-05-02T06:42:02.928Z,5176.00
2023-05-02T06:43:02.905Z,5170.00
2023-05-02T06:44:02.897Z,5127.00
2023-05-02T06:45:02.984Z,5162.00
2023-05-02T06:46:02.937Z,5105.00
2023-05-02T06:47:03.057Z,5074.00
2023-05-02T06:48:03.017Z,5075.00
2023-05-02T06:49:03.180Z,5086.00
2023-05-02T06:50:03.215Z,5077.00
2023-05-02T06:51:03.095Z,5058.00
2023-05-02T06:52:03.129Z,5061.00
2023-05-02T06:53:03.116Z,5065.00
2023-05-02T06:54:03.157Z,5075.00
2023-05-02T06:55:03.142Z,4978.00
2023-05-02T06:56:03.231Z,4851.00
2023-05-02T06:57:03.213Z,4927.00
2023-05-02T06:58:03.240Z,4887.00
2023-05-02T06:59:03.333Z,4947.00
2023-05-02T07:00:03.866Z,4968.00
2023-05-02T07:01:03.436Z,4965.00
2023-05-02T07:02:05.444Z,4961.00
2023-05-02T07:03:05.175Z,4956.00
2023-05-02T07:04:03.489Z,4951.00
2023-05-02T07:05:03.473Z,4958.00
2023-05-02T07:06:03.524Z,4955.00
2023-05-02T07:07:03.511Z,4958.00
2023-05-02T07:08:03.564Z,4964.00
2023-05-02T07:09:03.564Z,4961.00
2023-05-02T07:10:04.078Z,4960.00
2023-05-02T07:11:03.637Z,4970.00
2023-05-02T07:12:06.032Z,4970.00
2023-05-02T07:13:03.602Z,4979.00
2023-05-02T07:14:03.616Z,4978.00
2023-05-02T07:15:03.634Z,4979.00
2023-05-02T07:16:03.658Z,4970.00
2023-05-02T07:17:03.667Z,4984.00
2023-05-02T07:18:03.655Z,4970.00
2023-05-02T07:19:03.595Z,4985.00
2023-05-02T07:20:03.931Z,4977.00
2023-05-02T07:21:03.552Z,4990.00
2023-05-02T07:22:03.568Z,5005.00
2023-05-02T07:23:03.562Z,4985.00
2023-05-02T07:24:03.535Z,4991.00
2023-05-02T07:25:03.576Z,4979.00
2023-05-02T07:26:06.129Z,4982.00
2023-05-02T07:27:03.518Z,4984.00
2023-05-02T07:28:03.546Z,4985.00
2023-05-02T07:29:03.548Z,4989.00
2023-05-02T07:30:03.775Z,5008.00
2023-05-02T07:31:03.494Z,5061.00
2023-05-02T07:32:03.546Z,5074.00
2023-05-02T07:33:03.486Z,5070.00
2023-05-02T07:34:03.496Z,5062.00
2023-05-02T07:35:03.465Z,5049.00
2023-05-02T07:36:03.450Z,5051.00
2023-05-02T07:37:03.459Z,5041.00
2023-05-02T07:38:03.449Z,5049.00
2023-05-02T07:39:03.431Z,5044.00
2023-05-02T07:40:03.782Z,5039.00
2023-05-02T07:41:03.429Z,5053.00
2023-05-02T07:42:03.398Z,5072.00
2023-05-02T07:43:03.423Z,5036.00
2023-05-02T07:44:03.874Z,4962.00
2023-05-02T07:45:03.567Z,4952.00
2023-05-02T07:46:03.542Z,4718.00
2023-05-02T07:47:03.382Z,4260.00
2023-05-02T07:48:03.402Z,4117.00
2023-05-02T07:49:03.756Z,4047.00
2023-05-02T07:50:03.761Z,4022.00
2023-05-02T07:51:03.353Z,4091.00
2023-05-02T07:52:03.333Z,4174.00
2023-05-02T07:53:03.385Z,4218.00
2023-05-02T07:54:03.345Z,4245.00
2023-05-02T07:55:03.330Z,4264.00
2023-05-02T07:56:03.307Z,4264.00
2023-05-02T07:57:03.363Z,4261.00
2023-05-02T07:58:03.343Z,4293.00
2023-05-02T07:59:05.417Z,4304.00
2023-05-02T08:00:03.548Z,4330.00
2023-05-02T08:01:03.269Z,4333.00
2023-05-02T08:02:03.265Z,4346.00
2023-05-02T08:03:03.427Z,4359.00
2023-05-02T08:04:03.411Z,4358.00
2023-05-02T08:05:03.634Z,4373.00
2023-05-02T08:06:03.410Z,4384.00
2023-05-02T08:07:03.408Z,4377.00
2023-05-02T08:08:03.433Z,4376.00
2023-05-02T08:09:03.460Z,4381.00
2023-05-02T08:10:03.809Z,4379.00
2023-05-02T08:11:03.499Z,4388.00
2023-05-02T08:12:03.537Z,4417.00
2023-05-02T08:13:03.524Z,4415.00
2023-05-02T08:14:03.554Z,4453.00
2023-05-02T08:15:03.573Z,4507.00
2023-05-02T08:16:03.623Z,4499.00
2023-05-02T08:17:03.566Z,4492.00
2023-05-02T08:18:03.617Z,4472.00
2023-05-02T08:19:03.617Z,4488.00
2023-05-02T08:20:03.667Z,4509.00
2023-05-02T08:21:03.573Z,4480.00
2023-05-02T08:22:03.577Z,4624.00
2023-05-02T08:23:03.624Z,4527.00
2023-05-02T08:24:03.670Z,4488.00
2023-05-02T08:25:03.679Z,4497.00
2023-05-02T08:26:03.634Z,4514.00
2023-05-02T08:27:03.677Z,4523.00
2023-05-02T08:28:03.693Z,4512.00
2023-05-02T08:29:03.664Z,4518.00
2023-05-02T08:30:03.880Z,4522.00
2023-05-02T08:31:03.741Z,4530.00
2023-05-02T08:32:03.808Z,4517.00
2023-05-02T08:33:03.780Z,4472.00
2023-05-02T08:34:03.756Z,4499.00
2023-05-02T08:35:03.812Z,4556.00
2023-05-02T08:36:03.795Z,4586.00
2023-05-02T08:37:03.787Z,4594.00
2023-05-02T08:38:03.763Z,4663.00
2023-05-02T08:39:03.813Z,4633.00
2023-05-02T08:40:04.047Z,4543.00
2023-05-02T08:41:03.834Z,4488.00
2023-05-02T08:42:03.835Z,4472.00
2023-05-02T08:43:03.819Z,4487.00
2023-05-02T08:44:03.826Z,4457.00
2023-05-02T08:45:04.092Z,4466.00
2023-05-02T08:46:03.853Z,4455.00
2023-05-02T08:47:03.922Z,4474.00
2023-05-02T08:48:03.900Z,4460.00
2023-05-02T08:49:03.865Z,4449.00
2023-05-02T08:50:04.063Z,4371.00
2023-05-02T08:51:04.123Z,4186.00
2023-05-02T08:52:04.048Z,3996.00
2023-05-02T08:53:03.990Z,3890.00
2023-05-02T08:54:04.054Z,3808.00
2023-05-02T08:55:04.364Z,3639.00
2023-05-02T08:56:04.113Z,3737.00
2023-05-02T08:57:04.155Z,3785.00
2023-05-02T08:58:04.245Z,3814.00
2023-05-02T08:59:04.272Z,3903.00
2023-05-02T09:00:04.301Z,3992.00
2023-05-02T09:01:04.391Z,4049.00
2023-05-02T09:02:04.414Z,4083.00
2023-05-02T09:03:04.446Z,4151.00
2023-05-02T09:04:04.420Z,4599.00
2023-05-02T09:05:06.147Z,4573.00
2023-05-02T09:06:04.506Z,4601.00
2023-05-02T09:07:04.520Z,4377.00
2023-05-02T09:08:04.580Z,4342.00
2023-05-02T09:09:04.622Z,4336.00
2023-05-02T09:10:04.650Z,4331.00
2023-05-02T09:11:04.716Z,4371.00
2023-05-02T09:12:04.717Z,4357.00
2023-05-02T09:13:04.784Z,4346.00
2023-05-02T09:14:04.836Z,4365.00
2023-05-02T09:15:04.843Z,4392.00
2023-05-02T09:16:04.855Z,4433.00
2023-05-02T09:17:04.955Z,4468.00
2023-05-02T09:18:04.971Z,4497.00
2023-05-02T09:19:04.932Z,4742.00
2023-05-02T09:20:04.938Z,4857.00
2023-05-02T09:21:05.084Z,4723.00
2023-05-02T09:22:04.959Z,4649.00
2023-05-02T09:23:04.960Z,4645.00
2023-05-02T09:24:04.988Z,4685.00
2023-05-02T09:25:05.002Z,4700.00
2023-05-02T09:26:05.096Z,4713.00
2023-05-02T09:27:05.086Z,4730.00
2023-05-02T09:28:05.071Z,4719.00
2023-05-02T09:29:05.053Z,4697.00
2023-05-02T09:30:05.103Z,4322.00
2023-05-02T09:31:05.114Z,3899.00
2023-05-02T09:32:06.153Z,3779.00
2023-05-02T09:33:05.269Z,3914.00
2023-05-02T09:34:05.230Z,3955.00
2023-05-02T09:35:05.268Z,4038.00
2023-05-02T09:36:05.340Z,4108.00
2023-05-02T09:37:05.425Z,4090.00
2023-05-02T09:38:05.404Z,4045.00
2023-05-02T09:39:05.478Z,4028.00
2023-05-02T09:40:05.491Z,4015.00
2023-05-02T09:41:05.684Z,3985.00
2023-05-02T09:42:05.543Z,4009.00
2023-05-02T09:43:05.575Z,4042.00
2023-05-02T09:44:05.653Z,4035.00
2023-05-02T09:45:05.570Z,4072.00
2023-05-02T09:46:06.157Z,4078.00
2023-05-02T09:47:05.651Z,4073.00
2023-05-02T09:48:05.680Z,4114.00
2023-05-02T09:49:05.712Z,4133.00
2023-05-02T09:50:05.764Z,4248.00
2023-05-02T09:51:05.743Z,4235.00
2023-05-02T09:52:05.763Z,4234.00
2023-05-02T09:53:06.097Z,4213.00
2023-05-02T09:54:05.798Z,4203.00
2023-05-02T09:55:05.845Z,4176.00
2023-05-02T09:56:05.912Z,4168.00
2023-05-02T09:57:05.919Z,4095.00
2023-05-02T09:58:05.941Z,4087.00
2023-05-02T09:59:05.992Z,4102.00
2023-05-02T10:00:06.015Z,4109.00
2023-05-02T10:01:06.147Z,4094.00
2023-05-02T10:02:06.117Z,4071.00
2023-05-02T10:03:06.221Z,4051.00
2023-05-02T10:04:06.230Z,4032.00
2023-05-02T10:05:06.240Z,4034.00
2023-05-02T10:06:06.363Z,4017.00
2023-05-02T10:07:06.387Z,4011.00
2023-05-02T10:08:06.420Z,3990.00
2023-05-02T10:09:06.445Z,3960.00
2023-05-02T10:10:06.482Z,3970.00
2023-05-02T10:11:06.534Z,3947.00
2023-05-02T10:12:06.600Z,3928.00
2023-05-02T10:13:06.644Z,3911.00
2023-05-02T10:14:06.666Z,3899.00
2023-05-02T10:15:06.782Z,3876.00
2023-05-02T10:16:06.799Z,3861.00
2023-05-02T10:17:06.850Z,3815.00
2023-05-02T10:18:06.932Z,3813.00
2023-05-02T10:19:06.913Z,3799.00
2023-05-02T10:20:07.028Z,3777.00
2023-05-02T10:21:07.023Z,3754.00
2023-05-02T10:22:07.086Z,3742.00
2023-05-02T10:23:07.123Z,3703.00
2023-05-02T10:24:07.184Z,3696.00
2023-05-02T10:25:07.223Z,3638.00
2023-05-02T10:26:07.273Z,3647.00
2023-05-02T10:27:07.293Z,3664.00
2023-05-02T10:28:07.302Z,3649.00
2023-05-02T10:29:07.371Z,3636.00
2023-05-02T10:30:07.441Z,3633.00
2023-05-02T10:31:07.504Z,3630.00
2023-05-02T10:32:07.556Z,3616.00
2023-05-02T10:33:07.620Z,3464.00
2023-05-02T10:34:07.629Z,3531.00
2023-05-02T10:35:07.667Z,3546.00
2023-05-02T10:36:08.141Z,3513.00
2023-05-02T10:37:07.764Z,3438.00
2023-05-02T10:38:07.758Z,3444.00
2023-05-02T10:39:07.804Z,3598.00
2023-05-02T10:40:07.899Z,3543.00
2023-05-02T10:41:08.111Z,3479.00
2023-05-02T10:42:07.931Z,3447.00
2023-05-02T10:43:07.959Z,3392.00
2023-05-02T10:44:07.972Z,3394.00
2023-05-02T10:45:07.983Z,3548.00
2023-05-02T10:46:08.040Z,3463.00
2023-05-02T10:47:08.130Z,3431.00
2023-05-02T10:48:08.169Z,3436.00
2023-05-02T10:49:08.201Z,3458.00
2023-05-02T10:50:08.231Z,3413.00
2023-05-02T10:51:08.304Z,3404.00
2023-05-02T10:52:08.385Z,3435.00
2023-05-02T10:53:08.406Z,3446.00
2023-05-02T10:54:08.452Z,3476.00
2023-05-02T10:55:08.509Z,3492.00
2023-05-02T10:56:08.555Z,3493.00
2023-05-02T10:57:08.626Z,3547.00
2023-05-02T10:58:08.656Z,3602.00
2023-05-02T10:59:08.689Z,3599.00
2023-05-02T11:00:08.743Z,3590.00
2023-05-02T11:01:08.824Z,3627.00
2023-05-02T11:02:08.879Z,3621.00
2023-05-02T11:03:09.055Z,3602.00
2023-05-02T11:04:08.947Z,3594.00
2023-05-02T11:05:08.958Z,3675.00
2023-05-02T11:06:09.094Z,3596.00
2023-05-02T11:07:09.014Z,3607.00
2023-05-02T11:08:09.029Z,3598.00
2023-05-02T11:09:09.092Z,3630.00
2023-05-02T11:10:09.098Z,3636.00
2023-05-02T11:11:09.138Z,3642.00
2023-05-02T11:12:09.138Z,3645.00
2023-05-02T11:13:09.205Z,3645.00
2023-05-02T11:14:09.176Z,3666.00
2023-05-02T11:15:09.223Z,3781.00
2023-05-02T11:16:09.279Z,3714.00
2023-05-02T11:17:09.292Z,3477.00
2023-05-02T11:18:09.445Z,3405.00
2023-05-02T11:19:09.358Z,3326.00
2023-05-02T11:20:09.407Z,3007.00
2023-05-02T11:21:09.648Z,2912.00
2023-05-02T11:22:09.507Z,2826.00
2023-05-02T11:23:09.541Z,2780.00
2023-05-02T11:24:09.575Z,2766.00
2023-05-02T11:25:09.619Z,2826.00
2023-05-02T11:26:09.613Z,2855.00
2023-05-02T11:27:09.614Z,2597.00
2023-05-02T11:28:09.580Z,2520.00
2023-05-02T11:29:09.605Z,2416.00
2023-05-02T11:30:09.847Z,2386.00
2023-05-02T11:31:10.313Z,2416.00
2023-05-02T11:32:09.691Z,2466.00
2023-05-02T11:33:10.172Z,2521.00
2023-05-02T11:34:09.716Z,2606.00
2023-05-02T11:35:09.690Z,2636.00
2023-05-02T11:36:10.170Z,2601.00
2023-05-02T11:37:09.745Z,2666.00
2023-05-02T11:38:09.804Z,2729.00
2023-05-02T11:39:09.795Z,2739.00
2023-05-02T11:40:09.812Z,2787.00
2023-05-02T11:41:09.811Z,2790.00
2023-05-02T11:42:09.859Z,2805.00
2023-05-02T11:43:09.866Z,2815.00
2023-05-02T11:44:09.918Z,2827.00
2023-05-02T11:45:09.946Z,2830.00
2023-05-02T11:46:09.991Z,2804.00
2023-05-02T11:47:10.017Z,2801.00
2023-05-02T11:48:10.106Z,2788.00
2023-05-02T11:49:11.532Z,2807.00
2023-05-02T11:50:10.187Z,2839.00
2023-05-02T11:51:10.180Z,2825.00
2023-05-02T11:52:10.241Z,2784.00
2023-05-02T11:53:10.278Z,2763.00
2023-05-02T11:54:10.348Z,2734.00
2023-05-02T11:55:11.622Z,2731.00
2023-05-02T11:56:10.372Z,2742.00
2023-05-02T11:57:10.389Z,2746.00
2023-05-02T11:58:10.456Z,2741.00
2023-05-02T11:59:10.479Z,2752.00
2023-05-02T12:00:10.524Z,2735.00
2023-05-02T12:01:11.094Z,2413.00
2023-05-02T12:02:10.585Z,2117.00
2023-05-02T12:03:10.728Z,1968.00
2023-05-02T12:04:10.710Z,1838.00
2023-05-02T12:05:10.784Z,1645.00
2023-05-02T12:06:10.901Z,1534.00